^^
Grace C. Lehan Memorial Weather Station Historical Data
Daily Summary for April 1, 2021 Units:  Both    English   Metric
Daily Weekly Monthly Yearly
  High: Low: Average:
Temperature: 48.8 °F /  9.3 °C 33.5 °F /  0.8 °C 40.7 °F /  4.8 °C
Dew Point: 34.9 °F /  1.6 °C 29.3 °F /  -1.5 °C 31.5 °F /  -0.3 °C
Humidity: 89% 48.6% 71%
Wind Speed: 8.4mph /  13.5km/h - 1mph /  1.6km/h
Wind Gust: 19mph /  30.6km/h - -
Wind- - West
Pressure: 30.11 in /  1019.5 hPa 29.89 in /  1012.1 hPa -
Precipitation: 0.00 in /  0 mm    
 
 
Tabular Data for April 1, 2021
Time Temperature Dew Point Pressure Wind Wind Speed Wind Gust Humidity Rainfall Rate (Hourly) solar
00:04 35.8 °F /  2.1 °C 31.1 °F /  -0.5 °C 29.89in /  1012.1hPa Calm   3mph /  4.8km/h 83% 0.00in /  0mm 0 W/m2
00:09 35.7 °F /  2.1 °C 31.1 °F /  -0.5 °C 29.89in /  1012.1hPa Calm     83% 0.00in /  0mm 0 W/m2
00:14 35.6 °F /  2 °C 31 °F /  -0.6 °C 29.89in /  1012.1hPa Calm     83% 0.00in /  0mm 0 W/m2
00:19 35.6 °F /  2 °C 31 °F /  -0.6 °C 29.89in /  1012.1hPa Calm     83% 0.00in /  0mm 0 W/m2
00:24 35.5 °F /  1.9 °C 31 °F /  -0.6 °C 29.89in /  1012.1hPa Calm     83.5% 0.00in /  0mm 0 W/m2
00:29 35.6 °F /  2 °C 31.2 °F /  -0.4 °C 29.89in /  1012.1hPa Calm     84% 0.00in /  0mm 0 W/m2
00:34 35.6 °F /  2 °C 31.3 °F /  -0.4 °C 29.90in /  1012.4hPa Calm     84% 0.00in /  0mm 0 W/m2
00:39 35.6 °F /  2 °C 31.3 °F /  -0.4 °C 29.90in /  1012.4hPa SW 0.2mph /  0.3km/h 3mph /  4.8km/h 84% 0.00in /  0mm 0 W/m2
00:44 35.7 °F /  2.1 °C 31.3 °F /  -0.4 °C 29.89in /  1012.1hPa SW 0.2mph /  0.3km/h 3mph /  4.8km/h 84% 0.00in /  0mm 0 W/m2
00:49 35.7 °F /  2.1 °C 31.4 °F /  -0.3 °C 29.89in /  1012.1hPa Calm   3mph /  4.8km/h 84% 0.00in /  0mm 0 W/m2
00:54 35.7 °F /  2.1 °C 31.4 °F /  -0.3 °C 29.90in /  1012.4hPa SW 0.4mph /  0.6km/h 4mph /  6.4km/h 84% 0.00in /  0mm 0 W/m2
00:59 35.9 °F /  2.2 °C 31.5 °F /  -0.3 °C 29.91in /  1012.8hPa SW 0.7mph /  1.1km/h 5mph /  8km/h 84% 0.00in /  0mm 0 W/m2
01:04 36 °F /  2.2 °C 31.7 °F /  -0.2 °C 29.91in /  1012.8hPa WSW 0.6mph /  1km/h 5mph /  8km/h 84% 0.00in /  0mm 0 W/m2
01:09 36.2 °F /  2.3 °C 31.8 °F /  -0.1 °C 29.91in /  1012.8hPa WSW 0.8mph /  1.3km/h 5mph /  8km/h 84% 0.00in /  0mm 0 W/m2
01:14 36.3 °F /  2.4 °C 32 °F /  0 °C 29.91in /  1012.8hPa SW 1.3mph /  2.1km/h 6mph /  9.7km/h 84% 0.00in /  0mm 0 W/m2
01:19 36.5 °F /  2.5 °C 31.9 °F /  -0.1 °C 29.91in /  1012.8hPa SW 2.8mph /  4.5km/h 11mph /  17.7km/h 83.4% 0.00in /  0mm 0 W/m2
01:24 36.6 °F /  2.6 °C 31.9 °F /  -0.1 °C 29.92in /  1013.1hPa SW 0.5mph /  0.8km/h 11mph /  17.7km/h 83% 0.00in /  0mm 0 W/m2
01:29 36.6 °F /  2.6 °C 32 °F /  0 °C 29.92in /  1013.1hPa SW 0.2mph /  0.3km/h 11mph /  17.7km/h 83% 0.00in /  0mm 0 W/m2
01:34 36.6 °F /  2.6 °C 31.9 °F /  -0.1 °C 29.92in /  1013.1hPa SW 0.2mph /  0.3km/h 11mph /  17.7km/h 82.6% 0.00in /  0mm 0 W/m2
01:39 36.6 °F /  2.6 °C 31.6 °F /  -0.2 °C 29.92in /  1013.1hPa SW 1.2mph /  1.9km/h 7mph /  11.3km/h 82% 0.00in /  0mm 0 W/m2
01:44 36.6 °F /  2.6 °C 31.6 °F /  -0.2 °C 29.92in /  1013.1hPa WSW 0.9mph /  1.4km/h 9mph /  14.5km/h 82% 0.00in /  0mm 0 W/m2
01:49 36.5 °F /  2.5 °C 31.6 °F /  -0.2 °C 29.93in /  1013.4hPa WSW 1.2mph /  1.9km/h 9mph /  14.5km/h 82% 0.00in /  0mm 0 W/m2
01:54 36.4 °F /  2.4 °C 31.5 °F /  -0.3 °C 29.93in /  1013.4hPa WSW 0.9mph /  1.4km/h 9mph /  14.5km/h 82% 0.00in /  0mm 0 W/m2
01:59 36.4 °F /  2.4 °C 31.4 °F /  -0.3 °C 29.93in /  1013.4hPa WSW 0.5mph /  0.8km/h 9mph /  14.5km/h 82% 0.00in /  0mm 0 W/m2
02:04 36.3 °F /  2.4 °C 31.4 °F /  -0.3 °C 29.93in /  1013.4hPa WSW 0.3mph /  0.5km/h 9mph /  14.5km/h 82% 0.00in /  0mm 0 W/m2
02:09 36.3 °F /  2.4 °C 31.6 °F /  -0.2 °C 29.93in /  1013.4hPa WSW 0.5mph /  0.8km/h 6mph /  9.7km/h 82.7% 0.00in /  0mm 0 W/m2
02:14 36.3 °F /  2.4 °C 31.6 °F /  -0.2 °C 29.94in /  1013.8hPa WSW 1mph /  1.6km/h 7mph /  11.3km/h 83% 0.00in /  0mm 0 W/m2
02:19 36.3 °F /  2.4 °C 31.6 °F /  -0.2 °C 29.94in /  1013.8hPa SW 1.3mph /  2.1km/h 9mph /  14.5km/h 83% 0.00in /  0mm 0 W/m2
02:24 36.3 °F /  2.4 °C 31.6 °F /  -0.2 °C 29.93in /  1013.4hPa WSW 0.8mph /  1.3km/h 11mph /  17.7km/h 83% 0.00in /  0mm 0 W/m2
02:29 36.3 °F /  2.4 °C 31.6 °F /  -0.2 °C 29.94in /  1013.8hPa WSW 0.7mph /  1.1km/h 11mph /  17.7km/h 83% 0.00in /  0mm 0 W/m2
02:34 36.3 °F /  2.4 °C 31.6 °F /  -0.2 °C 29.94in /  1013.8hPa WSW 0.2mph /  0.3km/h 11mph /  17.7km/h 83% 0.00in /  0mm 0 W/m2
02:39 36.3 °F /  2.4 °C 31.7 °F /  -0.2 °C 29.94in /  1013.8hPa WSW 0.5mph /  0.8km/h 6mph /  9.7km/h 83% 0.00in /  0mm 0 W/m2
02:44 36.4 °F /  2.4 °C 31.7 °F /  -0.2 °C 29.94in /  1013.8hPa WSW 1mph /  1.6km/h 6mph /  9.7km/h 83% 0.00in /  0mm 0 W/m2
02:49 36.3 °F /  2.4 °C 31.7 °F /  -0.2 °C 29.94in /  1013.8hPa WSW 0.3mph /  0.5km/h 6mph /  9.7km/h 83% 0.00in /  0mm 0 W/m2
02:54 36.3 °F /  2.4 °C 31.6 °F /  -0.2 °C 29.94in /  1013.8hPa SW 0.9mph /  1.4km/h 6mph /  9.7km/h 83% 0.00in /  0mm 0 W/m2
02:59 36.2 °F /  2.3 °C 31.5 °F /  -0.3 °C 29.94in /  1013.8hPa SW 0.1mph /  0.2km/h 6mph /  9.7km/h 83% 0.00in /  0mm 0 W/m2
03:04 36.1 °F /  2.3 °C 31.4 °F /  -0.3 °C 29.94in /  1013.8hPa SW 0.4mph /  0.6km/h 9mph /  14.5km/h 83% 0.00in /  0mm 0 W/m2
03:09 36 °F /  2.2 °C 31.3 °F /  -0.4 °C 29.95in /  1014.1hPa SW 0.6mph /  1km/h 9mph /  14.5km/h 83% 0.00in /  0mm 0 W/m2
03:14 35.9 °F /  2.2 °C 31.4 °F /  -0.3 °C 29.95in /  1014.1hPa WSW 1.5mph /  2.4km/h 10mph /  16.1km/h 83.7% 0.00in /  0mm 0 W/m2
03:19 35.8 °F /  2.1 °C 31.5 °F /  -0.3 °C 29.95in /  1014.1hPa West 0.5mph /  0.8km/h 10mph /  16.1km/h 84% 0.00in /  0mm 0 W/m2
03:24 35.7 °F /  2.1 °C 31.4 °F /  -0.3 °C 29.95in /  1014.1hPa WSW 0.5mph /  0.8km/h 10mph /  16.1km/h 84% 0.00in /  0mm 0 W/m2
03:29 35.6 °F /  2 °C 31.3 °F /  -0.4 °C 29.95in /  1014.1hPa WSW 0.1mph /  0.2km/h 10mph /  16.1km/h 84% 0.00in /  0mm 0 W/m2
03:34 35.6 °F /  2 °C 31.2 °F /  -0.4 °C 29.95in /  1014.1hPa WSW 0.1mph /  0.2km/h 10mph /  16.1km/h 84% 0.00in /  0mm 0 W/m2
03:39 35.5 °F /  1.9 °C 31.1 °F /  -0.5 °C 29.95in /  1014.1hPa Calm   2mph /  3.2km/h 84% 0.00in /  0mm 0 W/m2
03:44 35.4 °F /  1.9 °C 31 °F /  -0.6 °C 29.96in /  1014.4hPa WSW 0.4mph /  0.6km/h 3mph /  4.8km/h 84% 0.00in /  0mm 0 W/m2
03:49 35.2 °F /  1.8 °C 30.9 °F /  -0.6 °C 29.96in /  1014.4hPa WSW 1.8mph /  2.9km/h 6mph /  9.7km/h 84% 0.00in /  0mm 0 W/m2
03:54 35.2 °F /  1.8 °C 31.1 °F /  -0.5 °C 29.96in /  1014.4hPa Calm   6mph /  9.7km/h 85% 0.00in /  0mm 0 W/m2
03:59 35.1 °F /  1.7 °C 31 °F /  -0.6 °C 29.96in /  1014.4hPa WSW 0.8mph /  1.3km/h 10mph /  16.1km/h 85% 0.00in /  0mm 0 W/m2
04:09 34.9 °F /  1.6 °C 30.9 °F /  -0.6 °C 29.97in /  1014.8hPa SW 0.1mph /  0.2km/h 2mph /  3.2km/h 85.3% 0.00in /  0mm 0 W/m2
04:14 34.8 °F /  1.6 °C 30.9 °F /  -0.6 °C 29.97in /  1014.8hPa Calm   2mph /  3.2km/h 85.5% 0.00in /  0mm 0 W/m2
04:19 34.8 °F /  1.6 °C 31 °F /  -0.6 °C 29.97in /  1014.8hPa Calm   2mph /  3.2km/h 86% 0.00in /  0mm 0 W/m2
04:24 34.7 °F /  1.5 °C 30.9 °F /  -0.6 °C 29.98in /  1015.1hPa Calm   2mph /  3.2km/h 86% 0.00in /  0mm 0 W/m2
04:29 34.5 °F /  1.4 °C 30.7 °F /  -0.7 °C 29.98in /  1015.1hPa Calm   2mph /  3.2km/h 86% 0.00in /  0mm 0 W/m2
04:34 34.1 °F /  1.2 °C 30.4 °F /  -0.9 °C 29.98in /  1015.1hPa Calm   2mph /  3.2km/h 86% 0.00in /  0mm 0 W/m2
04:39 33.8 °F /  1 °C 30.1 °F /  -1.1 °C 29.98in /  1015.1hPa Calm     86% 0.00in /  0mm 0 W/m2
04:44 33.6 °F /  0.9 °C 29.9 °F /  -1.2 °C 29.98in /  1015.1hPa Calm     86% 0.00in /  0mm 0 W/m2
04:49 33.5 °F /  0.8 °C 30 °F /  -1.1 °C 29.98in /  1015.1hPa Calm     86.7% 0.00in /  0mm 0 W/m2
04:54 33.5 °F /  0.8 °C 30.1 °F /  -1.1 °C 29.98in /  1015.1hPa Calm     87% 0.00in /  0mm 0 W/m2
04:59 33.5 °F /  0.8 °C 30.2 °F /  -1 °C 29.98in /  1015.1hPa Calm     87.4% 0.00in /  0mm 0 W/m2
05:04 33.6 °F /  0.9 °C 30.4 °F /  -0.9 °C 29.99in /  1015.5hPa Calm     88% 0.00in /  0mm 0 W/m2
05:09 33.6 °F /  0.9 °C 30.4 °F /  -0.9 °C 29.99in /  1015.5hPa Calm     88% 0.00in /  0mm 0 W/m2
05:14 33.6 °F /  0.9 °C 30.5 °F /  -0.8 °C 29.99in /  1015.5hPa SW 0.3mph /  0.5km/h 3mph /  4.8km/h 88% 0.00in /  0mm 0 W/m2
05:19 33.7 °F /  0.9 °C 30.5 °F /  -0.8 °C 30.00in /  1015.8hPa Calm   3mph /  4.8km/h 88% 0.00in /  0mm 0 W/m2
05:24 33.7 °F /  0.9 °C 30.5 °F /  -0.8 °C 30.00in /  1015.8hPa Calm   3mph /  4.8km/h 88% 0.00in /  0mm 0 W/m2
05:29 33.6 °F /  0.9 °C 30.4 °F /  -0.9 °C 30.00in /  1015.8hPa Calm   3mph /  4.8km/h 88% 0.00in /  0mm 0 W/m2
05:34 33.5 °F /  0.8 °C 30.4 °F /  -0.9 °C 30.00in /  1015.8hPa Calm   3mph /  4.8km/h 88% 0.00in /  0mm 0 W/m2
05:39 33.5 °F /  0.8 °C 30.3 °F /  -0.9 °C 30.01in /  1016.1hPa Calm     88% 0.00in /  0mm 0 W/m2
05:44 33.5 °F /  0.8 °C 30.3 °F /  -0.9 °C 30.01in /  1016.1hPa Calm     88% 0.00in /  0mm 0 W/m2
05:49 33.5 °F /  0.8 °C 30.4 °F /  -0.9 °C 30.01in /  1016.1hPa Calm     88.1% 0.00in /  0mm 0 W/m2
05:54 33.7 °F /  0.9 °C 30.8 °F /  -0.7 °C 30.01in /  1016.1hPa Calm     89% 0.00in /  0mm 0 W/m2
05:59 33.8 °F /  1 °C 30.9 °F /  -0.6 °C 30.01in /  1016.1hPa Calm     89% 0.00in /  0mm 0 W/m2
06:04 33.9 °F /  1.1 °C 31 °F /  -0.6 °C 30.02in /  1016.5hPa Calm     89% 0.00in /  0mm 0 W/m2
06:09 34 °F /  1.1 °C 31.2 °F /  -0.4 °C 30.02in /  1016.5hPa Calm     89% 0.00in /  0mm 0 W/m2
06:14 34.2 °F /  1.2 °C 31.1 °F /  -0.5 °C 30.02in /  1016.5hPa Calm     88.2% 0.00in /  0mm 0 W/m2
06:19 34.3 °F /  1.3 °C 31.1 °F /  -0.5 °C 30.03in /  1016.8hPa Calm   1mph /  1.6km/h 88% 0.00in /  0mm 0 W/m2
06:24 34.4 °F /  1.3 °C 31.2 °F /  -0.4 °C 30.03in /  1016.8hPa Calm   1mph /  1.6km/h 88% 0.00in /  0mm 0 W/m2
06:29 34.5 °F /  1.4 °C 31.4 °F /  -0.3 °C 30.03in /  1016.8hPa Calm   1mph /  1.6km/h 88% 0.00in /  0mm 0 W/m2
06:34 34.6 °F /  1.4 °C 31.5 °F /  -0.3 °C 30.03in /  1016.8hPa Calm   1mph /  1.6km/h 88% 0.00in /  0mm 0 W/m2
06:39 34.8 °F /  1.6 °C 31.5 °F /  -0.3 °C 30.03in /  1016.8hPa Calm     87.6% 0.00in /  0mm 0 W/m2
06:44 34.9 °F /  1.6 °C 31.4 °F /  -0.3 °C 30.04in /  1017.2hPa SW 0.4mph /  0.6km/h 2mph /  3.2km/h 87% 0.00in /  0mm 0 W/m2
06:49 35.1 °F /  1.7 °C 31.6 °F /  -0.2 °C 30.04in /  1017.2hPa Calm   2mph /  3.2km/h 87% 0.00in /  0mm 0 W/m2
06:54 35.1 °F /  1.7 °C 31.5 °F /  -0.3 °C 30.05in /  1017.5hPa Calm   2mph /  3.2km/h 86.3% 0.00in /  0mm 5 W/m2
06:59 35 °F /  1.7 °C 31.3 °F /  -0.4 °C 30.05in /  1017.5hPa Calm   2mph /  3.2km/h 86% 0.00in /  0mm 5 W/m2
07:04 34.9 °F /  1.6 °C 31.2 °F /  -0.4 °C 30.06in /  1017.8hPa Calm   2mph /  3.2km/h 86% 0.00in /  0mm 11 W/m2
07:09 34.8 °F /  1.6 °C 31.1 °F /  -0.5 °C 30.06in /  1017.8hPa Calm     86% 0.00in /  0mm 14 W/m2
07:14 34.8 °F /  1.6 °C 31.1 °F /  -0.5 °C 30.07in /  1018.2hPa Calm     86% 0.00in /  0mm 18 W/m2
07:19 34.8 °F /  1.6 °C 31 °F /  -0.6 °C 30.07in /  1018.2hPa SW 0.1mph /  0.2km/h 3mph /  4.8km/h 86% 0.00in /  0mm 19 W/m2
07:24 34.7 °F /  1.5 °C 31.2 °F /  -0.4 °C 30.07in /  1018.2hPa Calm   3mph /  4.8km/h 86.8% 0.00in /  0mm 21 W/m2
07:29 34.7 °F /  1.5 °C 31.2 °F /  -0.4 °C 30.07in /  1018.2hPa Calm   3mph /  4.8km/h 87% 0.00in /  0mm 23 W/m2
07:34 34.7 °F /  1.5 °C 31.2 °F /  -0.4 °C 30.06in /  1017.8hPa Calm   3mph /  4.8km/h 87% 0.00in /  0mm 32 W/m2
07:39 34.7 °F /  1.5 °C 31.2 °F /  -0.4 °C 30.06in /  1017.8hPa SW 0.1mph /  0.2km/h 3mph /  4.8km/h 87% 0.00in /  0mm 56 W/m2
07:44 34.9 °F /  1.6 °C 31.5 °F /  -0.3 °C 30.06in /  1017.8hPa Calm   3mph /  4.8km/h 87.2% 0.00in /  0mm 84 W/m2
07:49 35.3 °F /  1.8 °C 32.1 °F /  0.1 °C 30.06in /  1017.8hPa WSW 0.3mph /  0.5km/h 3mph /  4.8km/h 88% 0.00in /  0mm 95 W/m2
07:54 35.8 °F /  2.1 °C 32.5 °F /  0.3 °C 30.07in /  1018.2hPa WSW 1.2mph /  1.9km/h 7mph /  11.3km/h 87.7% 0.00in /  0mm 100 W/m2
07:59 36.4 °F /  2.4 °C 32.9 °F /  0.5 °C 30.07in /  1018.2hPa WSW 0.7mph /  1.1km/h 7mph /  11.3km/h 86.8% 0.00in /  0mm 137 W/m2
08:00 36.8 °F /  2.7 °C 33 °F /  0.6 °C 30.07in /  1018.2hPa Calm   7mph /  11.3km/h 86% 0.00in /  0mm 137 W/m2
08:09 37.9 °F /  3.3 °C 33.7 °F /  0.9 °C 30.07in /  1018.2hPa WSW 0.9mph /  1.4km/h 7mph /  11.3km/h 84.8% 0.00in /  0mm 158 W/m2
08:14 38.6 °F /  3.7 °C 34 °F /  1.1 °C 30.07in /  1018.2hPa WSW 0.1mph /  0.2km/h 7mph /  11.3km/h 83.4% 0.00in /  0mm 181 W/m2
08:19 39.4 °F /  4.1 °C 34.3 °F /  1.3 °C 30.07in /  1018.2hPa WSW 0.1mph /  0.2km/h 7mph /  11.3km/h 82.1% 0.00in /  0mm 204 W/m2
08:24 40.1 °F /  4.5 °C 34.6 °F /  1.4 °C 30.07in /  1018.2hPa Calm   7mph /  11.3km/h 80.5% 0.00in /  0mm 207 W/m2
08:29 40.8 °F /  4.9 °C 34.6 °F /  1.4 °C 30.08in /  1018.5hPa WSW 0.2mph /  0.3km/h 7mph /  11.3km/h 78.4% 0.00in /  0mm 218 W/m2
08:34 41.4 °F /  5.2 °C 34.8 °F /  1.6 °C 30.08in /  1018.5hPa WSW 1mph /  1.6km/h 7mph /  11.3km/h 77.3% 0.00in /  0mm 236 W/m2
08:39 42 °F /  5.6 °C 34.9 °F /  1.6 °C 30.08in /  1018.5hPa WSW 0.8mph /  1.3km/h 4mph /  6.4km/h 75.8% 0.00in /  0mm 221 W/m2
08:44 42.5 °F /  5.8 °C 34.6 °F /  1.4 °C 30.08in /  1018.5hPa WSW 1.6mph /  2.6km/h 7mph /  11.3km/h 73.6% 0.00in /  0mm 227 W/m2
08:49 42.8 °F /  6 °C 34.7 °F /  1.5 °C 30.08in /  1018.5hPa WSW 0.6mph /  1km/h 7mph /  11.3km/h 72.9% 0.00in /  0mm 200 W/m2
08:54 43 °F /  6.1 °C 34.4 °F /  1.3 °C 30.09in /  1018.8hPa WSW 0.5mph /  0.8km/h 7mph /  11.3km/h 71.6% 0.00in /  0mm 155 W/m2
08:59 43 °F /  6.1 °C 34.3 °F /  1.3 °C 30.09in /  1018.8hPa WSW 0.6mph /  1km/h 7mph /  11.3km/h 71.2% 0.00in /  0mm 155 W/m2
09:04 43 °F /  6.1 °C 34.4 °F /  1.3 °C 30.09in /  1018.8hPa West 1.1mph /  1.8km/h 7mph /  11.3km/h 71.5% 0.00in /  0mm 162 W/m2
09:09 43 °F /  6.1 °C 34.2 °F /  1.2 °C 30.10in /  1019.2hPa West 0.7mph /  1.1km/h 7mph /  11.3km/h 71% 0.00in /  0mm 179 W/m2
09:14 43 °F /  6.1 °C 34.2 °F /  1.2 °C 30.10in /  1019.2hPa WSW 1.2mph /  1.9km/h 7mph /  11.3km/h 70.7% 0.00in /  0mm 98 W/m2
09:19 42.9 °F /  6.1 °C 33.8 °F /  1 °C 30.10in /  1019.2hPa WSW 0.7mph /  1.1km/h 7mph /  11.3km/h 70% 0.00in /  0mm 90 W/m2
09:24 42.7 °F /  5.9 °C 33.9 °F /  1.1 °C 30.10in /  1019.2hPa WSW 0.1mph /  0.2km/h 7mph /  11.3km/h 70.7% 0.00in /  0mm 120 W/m2
09:29 42.6 °F /  5.9 °C 33.8 °F /  1 °C 30.10in /  1019.2hPa WSW 1.3mph /  2.1km/h 7mph /  11.3km/h 71% 0.00in /  0mm 162 W/m2
09:34 42.5 °F /  5.8 °C 33.9 °F /  1.1 °C 30.10in /  1019.2hPa WSW 1.8mph /  2.9km/h 7mph /  11.3km/h 71.3% 0.00in /  0mm 209 W/m2
09:39 42.8 °F /  6 °C 34.1 °F /  1.2 °C 30.10in /  1019.2hPa WSW 0.6mph /  1km/h 5mph /  8km/h 71.1% 0.00in /  0mm 209 W/m2
09:44 43 °F /  6.1 °C 34.3 °F /  1.3 °C 30.10in /  1019.2hPa WSW 0.4mph /  0.6km/h 5mph /  8km/h 71% 0.00in /  0mm 155 W/m2
09:49 43.4 °F /  6.3 °C 34.4 °F /  1.3 °C 30.10in /  1019.2hPa WSW 1.7mph /  2.7km/h 5mph /  8km/h 70.4% 0.00in /  0mm 172 W/m2
09:54 43.7 °F /  6.5 °C 34.2 °F /  1.2 °C 30.10in /  1019.2hPa West 0.4mph /  0.6km/h 5mph /  8km/h 69.1% 0.00in /  0mm 207 W/m2
09:59 44.1 °F /  6.7 °C 34.2 °F /  1.2 °C 30.10in /  1019.2hPa WSW 0.9mph /  1.4km/h 5mph /  8km/h 68.1% 0.00in /  0mm 262 W/m2
10:04 44.4 °F /  6.9 °C 34.2 °F /  1.2 °C 30.10in /  1019.2hPa WSW 1mph /  1.6km/h 6mph /  9.7km/h 67.1% 0.00in /  0mm 229 W/m2
10:09 44.8 °F /  7.1 °C 34.5 °F /  1.4 °C 30.10in /  1019.2hPa WSW 0.9mph /  1.4km/h 7mph /  11.3km/h 67.2% 0.00in /  0mm 207 W/m2
10:14 45 °F /  7.2 °C 34 °F /  1.1 °C 30.10in /  1019.2hPa West 1.5mph /  2.4km/h 9mph /  14.5km/h 65.1% 0.00in /  0mm 185 W/m2
10:19 45.1 °F /  7.3 °C 34.1 °F /  1.2 °C 30.10in /  1019.2hPa West 0.1mph /  0.2km/h 9mph /  14.5km/h 65% 0.00in /  0mm 149 W/m2
10:24 45.2 °F /  7.3 °C 34.2 °F /  1.2 °C 30.10in /  1019.2hPa Calm   9mph /  14.5km/h 65% 0.00in /  0mm 135 W/m2
10:29 45.2 °F /  7.3 °C 34.2 °F /  1.2 °C 30.10in /  1019.2hPa West 1.2mph /  1.9km/h 9mph /  14.5km/h 65% 0.00in /  0mm 139 W/m2
10:34 45.1 °F /  7.3 °C 33.5 °F /  0.8 °C 30.10in /  1019.2hPa West 0.3mph /  0.5km/h 9mph /  14.5km/h 63.6% 0.00in /  0mm 160 W/m2
10:39 45.1 °F /  7.3 °C 33.5 °F /  0.8 °C 30.09in /  1018.8hPa WSW 1.4mph /  2.3km/h 5mph /  8km/h 63.7% 0.00in /  0mm 174 W/m2
10:44 45 °F /  7.2 °C 33.5 °F /  0.8 °C 30.09in /  1018.8hPa Calm   5mph /  8km/h 63.7% 0.00in /  0mm 181 W/m2
10:49 45.1 °F /  7.3 °C 33.8 °F /  1 °C 30.09in /  1018.8hPa WSW 0.2mph /  0.3km/h 5mph /  8km/h 64.3% 0.00in /  0mm 202 W/m2
10:54 45.3 °F /  7.4 °C 33.7 °F /  0.9 °C 30.09in /  1018.8hPa West 0.8mph /  1.3km/h 5mph /  8km/h 63.7% 0.00in /  0mm 253 W/m2
10:59 45.6 °F /  7.6 °C 34 °F /  1.1 °C 30.09in /  1018.8hPa West 0.9mph /  1.4km/h 5mph /  8km/h 63.5% 0.00in /  0mm 267 W/m2
11:04 46.1 °F /  7.8 °C 34.5 °F /  1.4 °C 30.09in /  1018.8hPa WNW 0.8mph /  1.3km/h 5mph /  8km/h 63.7% 0.00in /  0mm 244 W/m2
11:09 46.7 °F /  8.2 °C 33.7 °F /  0.9 °C 30.08in /  1018.5hPa West 2.4mph /  3.9km/h 8mph /  12.9km/h 60.5% 0.00in /  0mm 220 W/m2
11:14 47.1 °F /  8.4 °C 33.2 °F /  0.7 °C 30.08in /  1018.5hPa West 2.7mph /  4.3km/h 10mph /  16.1km/h 58.3% 0.00in /  0mm 218 W/m2
11:19 47.5 °F /  8.6 °C 33.3 °F /  0.7 °C 30.08in /  1018.5hPa West 2.6mph /  4.2km/h 10mph /  16.1km/h 57.6% 0.00in /  0mm 250 W/m2
11:24 47.8 °F /  8.8 °C 32.5 °F /  0.3 °C 30.08in /  1018.5hPa West 4.7mph /  7.6km/h 14mph /  22.5km/h 55.3% 0.00in /  0mm 260 W/m2
11:29 47.9 °F /  8.8 °C 32.2 °F /  0.1 °C 30.08in /  1018.5hPa WNW 3.2mph /  5.1km/h 14mph /  22.5km/h 54.3% 0.00in /  0mm 225 W/m2
11:34 47.9 °F /  8.8 °C 32.5 °F /  0.3 °C 30.08in /  1018.5hPa WNW 2.6mph /  4.2km/h 14mph /  22.5km/h 54.9% 0.00in /  0mm 274 W/m2
11:39 47.9 °F /  8.8 °C 31.9 °F /  -0.1 °C 30.08in /  1018.5hPa WNW 3.1mph /  5km/h 9mph /  14.5km/h 53.6% 0.00in /  0mm 288 W/m2
11:44 48 °F /  8.9 °C 31.6 °F /  -0.2 °C 30.08in /  1018.5hPa WNW 4mph /  6.4km/h 12mph /  19.3km/h 52.8% 0.00in /  0mm 279 W/m2
11:49 47.9 °F /  8.8 °C 31.1 °F /  -0.5 °C 30.08in /  1018.5hPa WNW 7.6mph /  12.2km/h 17mph /  27.4km/h 52% 0.00in /  0mm 306 W/m2
11:54 47.7 °F /  8.7 °C 31 °F /  -0.6 °C 30.08in /  1018.5hPa West 4.2mph /  6.8km/h 17mph /  27.4km/h 52.1% 0.00in /  0mm 406 W/m2
11:59 47.9 °F /  8.8 °C 30.8 °F /  -0.7 °C 30.08in /  1018.5hPa West 3.6mph /  5.8km/h 17mph /  27.4km/h 51.3% 0.00in /  0mm 302 W/m2
12:00 48.1 °F /  8.9 °C 30.8 °F /  -0.7 °C 30.08in /  1018.5hPa WNW 3mph /  4.8km/h 17mph /  27.4km/h 51% 0.00in /  0mm 302 W/m2
12:09 48.3 °F /  9.1 °C 29.8 °F /  -1.2 °C 30.08in /  1018.5hPa WNW 7.1mph /  11.4km/h 18mph /  29km/h 48.6% 0.00in /  0mm 355 W/m2
12:14 48.2 °F /  9 °C 30 °F /  -1.1 °C 30.08in /  1018.5hPa WNW 4.6mph /  7.4km/h 18mph /  29km/h 49% 0.00in /  0mm 357 W/m2
12:19 48.2 °F /  9 °C 30 °F /  -1.1 °C 30.08in /  1018.5hPa WNW 4mph /  6.4km/h 18mph /  29km/h 49.1% 0.00in /  0mm 199 W/m2
12:24 48.3 °F /  9.1 °C 30.1 °F /  -1.1 °C 30.09in /  1018.8hPa WNW 4.5mph /  7.2km/h 18mph /  29km/h 49.2% 0.00in /  0mm 213 W/m2
12:29 48.4 °F /  9.1 °C 30.1 °F /  -1.1 °C 30.09in /  1018.8hPa WNW 4.8mph /  7.7km/h 18mph /  29km/h 49% 0.00in /  0mm 251 W/m2
12:34 48.5 °F /  9.2 °C 30.2 °F /  -1 °C 30.09in /  1018.8hPa WNW 8.4mph /  13.5km/h 19mph /  30.6km/h 49% 0.00in /  0mm 258 W/m2
12:39 48.3 °F /  9.1 °C 30.1 °F /  -1.1 °C 30.09in /  1018.8hPa WNW 4mph /  6.4km/h 17mph /  27.4km/h 49.2% 0.00in /  0mm 236 W/m2
12:44 48.2 °F /  9 °C 30.6 °F /  -0.8 °C 30.09in /  1018.8hPa West 1.7mph /  2.7km/h 17mph /  27.4km/h 50.4% 0.00in /  0mm 234 W/m2
12:49 48.2 °F /  9 °C 30.4 °F /  -0.9 °C 30.08in /  1018.5hPa West 2.8mph /  4.5km/h 17mph /  27.4km/h 49.9% 0.00in /  0mm 234 W/m2
12:54 48.2 °F /  9 °C 30.3 °F /  -0.9 °C 30.09in /  1018.8hPa WNW 4.1mph /  6.6km/h 17mph /  27.4km/h 49.6% 0.00in /  0mm 204 W/m2
12:59 48.3 °F /  9.1 °C 30.5 °F /  -0.8 °C 30.09in /  1018.8hPa WNW 4mph /  6.4km/h 17mph /  27.4km/h 50% 0.00in /  0mm 211 W/m2
13:04 48.2 °F /  9 °C 30.5 °F /  -0.8 °C 30.09in /  1018.8hPa WNW 3.9mph /  6.3km/h 17mph /  27.4km/h 50% 0.00in /  0mm 200 W/m2
13:09 48.1 °F /  8.9 °C 30.4 °F /  -0.9 °C 30.09in /  1018.8hPa WNW 4.6mph /  7.4km/h 13mph /  20.9km/h 50.1% 0.00in /  0mm 179 W/m2
13:14 47.9 °F /  8.8 °C 30.6 °F /  -0.8 °C 30.09in /  1018.8hPa WNW 4.3mph /  6.9km/h 13mph /  20.9km/h 50.8% 0.00in /  0mm 174 W/m2
13:19 47.8 °F /  8.8 °C 30.6 °F /  -0.8 °C 30.09in /  1018.8hPa WNW 1.7mph /  2.7km/h 13mph /  20.9km/h 51.1% 0.00in /  0mm 158 W/m2
13:24 47.8 °F /  8.8 °C 30.7 °F /  -0.7 °C 30.09in /  1018.8hPa WNW 2.1mph /  3.4km/h 13mph /  20.9km/h 51.3% 0.00in /  0mm 146 W/m2
13:29 47.8 °F /  8.8 °C 31.2 °F /  -0.4 °C 30.09in /  1018.8hPa WNW 4.5mph /  7.2km/h 13mph /  20.9km/h 52.3% 0.00in /  0mm 142 W/m2
13:34 47.8 °F /  8.8 °C 30.8 °F /  -0.7 °C 30.09in /  1018.8hPa NW 2.8mph /  4.5km/h 13mph /  20.9km/h 51.5% 0.00in /  0mm 183 W/m2
13:39 47.8 °F /  8.8 °C 30.9 °F /  -0.6 °C 30.09in /  1018.8hPa WNW 2mph /  3.2km/h 10mph /  16.1km/h 51.7% 0.00in /  0mm 223 W/m2
13:44 47.8 °F /  8.8 °C 30.9 °F /  -0.6 °C 30.09in /  1018.8hPa WNW 3mph /  4.8km/h 11mph /  17.7km/h 51.6% 0.00in /  0mm 202 W/m2
13:49 47.9 °F /  8.8 °C 30.7 °F /  -0.7 °C 30.09in /  1018.8hPa West 3mph /  4.8km/h 11mph /  17.7km/h 51.1% 0.00in /  0mm 327 W/m2
13:54 48.2 °F /  9 °C 31.5 °F /  -0.3 °C 30.09in /  1018.8hPa WSW 1.2mph /  1.9km/h 11mph /  17.7km/h 52.2% 0.00in /  0mm 248 W/m2
13:59 48.6 °F /  9.2 °C 31.3 °F /  -0.4 °C 30.09in /  1018.8hPa West 1.6mph /  2.6km/h 11mph /  17.7km/h 50.9% 0.00in /  0mm 142 W/m2
14:04 48.8 °F /  9.3 °C 31 °F /  -0.6 °C 30.09in /  1018.8hPa WNW 3.9mph /  6.3km/h 13mph /  20.9km/h 50% 0.00in /  0mm 134 W/m2
14:09 48.6 °F /  9.2 °C 30.8 °F /  -0.7 °C 30.09in /  1018.8hPa WSW 2mph /  3.2km/h 13mph /  20.9km/h 50% 0.00in /  0mm 179 W/m2
14:14 48.4 °F /  9.1 °C 30.7 °F /  -0.7 °C 30.09in /  1018.8hPa WSW 1.7mph /  2.7km/h 13mph /  20.9km/h 50% 0.00in /  0mm 113 W/m2
14:19 48.3 °F /  9.1 °C 31 °F /  -0.6 °C 30.09in /  1018.8hPa WSW 1.7mph /  2.7km/h 13mph /  20.9km/h 51% 0.00in /  0mm 81 W/m2
14:24 48.3 °F /  9.1 °C 31 °F /  -0.6 °C 30.09in /  1018.8hPa WSW 1.4mph /  2.3km/h 13mph /  20.9km/h 51% 0.00in /  0mm 81 W/m2
14:29 48.2 °F /  9 °C 31.1 °F /  -0.5 °C 30.09in /  1018.8hPa West 0.5mph /  0.8km/h 13mph /  20.9km/h 51.3% 0.00in /  0mm 81 W/m2
14:34 48.1 °F /  8.9 °C 31.1 °F /  -0.5 °C 30.09in /  1018.8hPa WNW 1.7mph /  2.7km/h 13mph /  20.9km/h 51.5% 0.00in /  0mm 65 W/m2
14:39 47.8 °F /  8.8 °C 30.6 °F /  -0.8 °C 30.09in /  1018.8hPa WNW 2.2mph /  3.5km/h 10mph /  16.1km/h 51% 0.00in /  0mm 44 W/m2
14:44 47.6 °F /  8.7 °C 30.7 °F /  -0.7 °C 30.09in /  1018.8hPa West 0.3mph /  0.5km/h 10mph /  16.1km/h 51.7% 0.00in /  0mm 37 W/m2
14:49 47.5 °F /  8.6 °C 30.7 °F /  -0.7 °C 30.09in /  1018.8hPa West 0.8mph /  1.3km/h 10mph /  16.1km/h 52% 0.00in /  0mm 32 W/m2
14:54 47.3 °F /  8.5 °C 30.6 °F /  -0.8 °C 30.09in /  1018.8hPa West 1.4mph /  2.3km/h 10mph /  16.1km/h 52% 0.00in /  0mm 28 W/m2
14:59 47.1 °F /  8.4 °C 30.4 °F /  -0.9 °C 30.09in /  1018.8hPa WNW 2.1mph /  3.4km/h 10mph /  16.1km/h 52% 0.00in /  0mm 26 W/m2
15:04 46.8 °F /  8.2 °C 30.4 °F /  -0.9 °C 30.08in /  1018.5hPa WNW 0.3mph /  0.5km/h 10mph /  16.1km/h 52.7% 0.00in /  0mm 25 W/m2
15:09 46.6 °F /  8.1 °C 30.4 °F /  -0.9 °C 30.08in /  1018.5hPa West 0.9mph /  1.4km/h 5mph /  8km/h 53% 0.00in /  0mm 25 W/m2
15:14 46.5 °F /  8.1 °C 30.3 °F /  -0.9 °C 30.08in /  1018.5hPa West 0.2mph /  0.3km/h 5mph /  8km/h 53% 0.00in /  0mm 28 W/m2
15:19 46.3 °F /  7.9 °C 30.6 °F /  -0.8 °C 30.08in /  1018.5hPa West 1.1mph /  1.8km/h 5mph /  8km/h 53.9% 0.00in /  0mm 26 W/m2
15:24 46.1 °F /  7.8 °C 30.4 °F /  -0.9 °C 30.09in /  1018.8hPa West 0.1mph /  0.2km/h 5mph /  8km/h 54% 0.00in /  0mm 19 W/m2
15:29 46 °F /  7.8 °C 30.3 °F /  -0.9 °C 30.09in /  1018.8hPa West 1.3mph /  2.1km/h 5mph /  8km/h 54% 0.00in /  0mm 19 W/m2
15:34 45.9 °F /  7.7 °C 30.2 °F /  -1 °C 30.09in /  1018.8hPa Calm   5mph /  8km/h 54% 0.00in /  0mm 18 W/m2
15:39 45.7 °F /  7.6 °C 30.2 °F /  -1 °C 30.09in /  1018.8hPa Calm   1mph /  1.6km/h 54.4% 0.00in /  0mm 16 W/m2
15:44 45.5 °F /  7.5 °C 30.3 °F /  -0.9 °C 30.09in /  1018.8hPa West 0.3mph /  0.5km/h 3mph /  4.8km/h 55% 0.00in /  0mm 14 W/m2
15:49 45.3 °F /  7.4 °C 30.1 °F /  -1.1 °C 30.09in /  1018.8hPa West 0.1mph /  0.2km/h 3mph /  4.8km/h 55% 0.00in /  0mm 12 W/m2
15:54 45.1 °F /  7.3 °C 30 °F /  -1.1 °C 30.09in /  1018.8hPa West 0.1mph /  0.2km/h 3mph /  4.8km/h 55.2% 0.00in /  0mm 11 W/m2
15:59 45 °F /  7.2 °C 30.2 °F /  -1 °C 30.09in /  1018.8hPa Calm   3mph /  4.8km/h 56% 0.00in /  0mm 9 W/m2
16:00 44.8 °F /  7.1 °C 30.1 °F /  -1.1 °C 30.09in /  1018.8hPa Calm   3mph /  4.8km/h 56% 0.00in /  0mm 7 W/m2
16:09 44.5 °F /  6.9 °C 29.9 °F /  -1.2 °C 30.09in /  1018.8hPa Calm   1mph /  1.6km/h 56.1% 0.00in /  0mm 5 W/m2
16:14 44.3 °F /  6.8 °C 30 °F /  -1.1 °C 30.09in /  1018.8hPa Calm   1mph /  1.6km/h 57% 0.00in /  0mm 0 W/m2
16:19 44.1 °F /  6.7 °C 29.8 °F /  -1.2 °C 30.09in /  1018.8hPa Calm   1mph /  1.6km/h 57% 0.00in /  0mm 0 W/m2
16:24 43.8 °F /  6.6 °C 30 °F /  -1.1 °C 30.09in /  1018.8hPa Calm   1mph /  1.6km/h 57.9% 0.00in /  0mm 0 W/m2
16:29 43.5 °F /  6.4 °C 29.8 °F /  -1.2 °C 30.09in /  1018.8hPa Calm   1mph /  1.6km/h 58% 0.00in /  0mm 0 W/m2
16:34 43.3 °F /  6.3 °C 29.8 °F /  -1.2 °C 30.09in /  1018.8hPa Calm   1mph /  1.6km/h 58.6% 0.00in /  0mm 0 W/m2
16:39 42.9 °F /  6.1 °C 29.8 °F /  -1.2 °C 30.09in /  1018.8hPa Calm     59.4% 0.00in /  0mm 0 W/m2
16:44 42.6 °F /  5.9 °C 29.7 °F /  -1.3 °C 30.10in /  1019.2hPa Calm     60% 0.00in /  0mm 0 W/m2
16:49 42.3 °F /  5.7 °C 29.6 °F /  -1.3 °C 30.10in /  1019.2hPa Calm     60.4% 0.00in /  0mm 0 W/m2
16:54 42.1 °F /  5.6 °C 29.6 °F /  -1.3 °C 30.10in /  1019.2hPa Calm     61% 0.00in /  0mm 0 W/m2
16:59 41.8 °F /  5.4 °C 29.3 °F /  -1.5 °C 30.10in /  1019.2hPa Calm     61% 0.00in /  0mm 0 W/m2
17:04 41.5 °F /  5.3 °C 29.5 °F /  -1.4 °C 30.10in /  1019.2hPa Calm     62% 0.00in /  0mm 0 W/m2
17:09 41.2 °F /  5.1 °C 29.5 °F /  -1.4 °C 30.11in /  1019.5hPa Calm     62.6% 0.00in /  0mm 0 W/m2
17:14 41 °F /  5 °C 29.7 °F /  -1.3 °C 30.11in /  1019.5hPa Calm     63.8% 0.00in /  0mm 0 W/m2
17:19 40.7 °F /  4.8 °C 29.5 °F /  -1.4 °C 30.11in /  1019.5hPa Calm     64% 0.00in /  0mm 0 W/m2
17:23 40.5 °F /  4.7 °C 29.6 °F /  -1.3 °C 30.11in /  1019.5hPa Calm     64.9% 0.00in /  0mm 0 W/m2
Hartford County Weather
Compliments of Weather Underground - 2 mb